createdAt,value
2022-11-20T00:01:21.989Z,0.07
2022-11-20T00:03:49.187Z,0.19
2022-11-20T00:06:18.144Z,0.29
2022-11-20T00:08:45.429Z,0.09
2022-11-20T00:11:16.084Z,0.04
2022-11-20T00:13:44.169Z,0.21
2022-11-20T00:16:14.496Z,0.27
2022-11-20T00:18:41.086Z,0.43
2022-11-20T00:21:12.037Z,0.23
2022-11-20T00:23:38.673Z,0.25
2022-11-20T00:26:07.289Z,0.18
2022-11-20T00:28:34.533Z,0.29
2022-11-20T00:31:05.789Z,0.49
2022-11-20T00:33:32.654Z,0.40
2022-11-20T00:36:14.657Z,0.46
2022-11-20T00:38:41.313Z,0.59
2022-11-20T00:41:10.115Z,0.37
2022-11-20T00:43:38.597Z,0.43
2022-11-20T00:46:07.927Z,0.61
2022-11-20T00:48:34.505Z,0.64
2022-11-20T00:51:01.530Z,0.49
2022-11-20T00:53:28.198Z,0.15
2022-11-20T00:55:56.689Z,0.22
2022-11-20T00:58:25.268Z,0.37
2022-11-20T01:00:52.437Z,0.54
2022-11-20T01:03:25.625Z,0.68
2022-11-20T01:05:53.555Z,0.68
2022-11-20T01:08:20.142Z,0.57
2022-11-20T01:10:46.744Z,0.28
2022-11-20T01:13:13.434Z,0.27
2022-11-20T01:15:40.009Z,0.12
2022-11-20T01:18:06.586Z,0.30
2022-11-20T01:20:37.136Z,0.42
2022-11-20T01:23:04.938Z,-0.06
2022-11-20T01:25:31.527Z,-0.22
2022-11-20T01:27:58.086Z,-0.33
2022-11-20T01:30:24.667Z,-0.42
2022-11-20T01:32:51.349Z,-0.42
2022-11-20T01:35:17.947Z,-0.40
2022-11-20T01:37:44.546Z,-0.41
2022-11-20T01:40:11.989Z,-0.20
2022-11-20T01:42:38.698Z,-0.00
2022-11-20T01:45:43.595Z,-0.30
2022-11-20T01:48:10.423Z,-0.25
2022-11-20T01:50:37.094Z,-0.34
2022-11-20T01:53:11.265Z,-0.37
2022-11-20T01:55:45.421Z,-0.17
2022-11-20T01:58:12.838Z,0.07
2022-11-20T02:00:39.521Z,-0.09
2022-11-20T02:03:15.183Z,0.09
2022-11-20T02:06:13.042Z,-0.08
2022-11-20T02:08:40.041Z,-0.06
2022-11-20T02:11:06.932Z,-0.18
2022-11-20T02:13:35.015Z,-0.29
2022-11-20T02:16:02.674Z,-0.16
2022-11-20T02:18:29.908Z,-0.19
2022-11-20T02:21:14.614Z,-0.05
2022-11-20T02:24:12.804Z,0.04
2022-11-20T02:26:45.516Z,0.03
2022-11-20T02:29:12.129Z,-0.08
2022-11-20T02:31:41.560Z,-0.18
2022-11-20T02:34:09.782Z,-0.49
2022-11-20T02:36:39.803Z,-0.23
2022-11-20T02:39:06.869Z,0.03
2022-11-20T02:41:37.965Z,-0.05
2022-11-20T02:44:05.723Z,0.30
2022-11-20T02:46:33.368Z,0.14
2022-11-20T02:48:59.956Z,0.59
2022-11-20T02:51:26.562Z,0.26
2022-11-20T02:53:53.142Z,0.21
2022-11-20T02:56:19.952Z,0.21
2022-11-20T02:58:46.901Z,0.03
2022-11-20T03:01:13.605Z,0.02
2022-11-20T03:03:40.294Z,-0.02
2022-11-20T03:06:07.031Z,-0.06
2022-11-20T03:08:33.623Z,0.11
2022-11-20T03:11:05.796Z,-0.02
2022-11-20T03:13:32.706Z,0.06
2022-11-20T03:15:59.274Z,0.09
2022-11-20T03:18:29.160Z,0.29
2022-11-20T03:20:58.955Z,0.30
2022-11-20T03:23:26.059Z,0.18
2022-11-20T03:25:52.864Z,0.11
2022-11-20T03:28:19.519Z,0.04
2022-11-20T03:30:46.109Z,0.10
2022-11-20T03:33:12.689Z,0.13
2022-11-20T03:35:39.299Z,0.43
2022-11-20T03:38:05.877Z,0.63
2022-11-20T03:40:32.522Z,0.48
2022-11-20T03:42:59.110Z,0.59
2022-11-20T03:45:25.697Z,0.58
2022-11-20T03:47:52.342Z,0.87
2022-11-20T03:50:18.965Z,0.77
2022-11-20T03:52:45.566Z,0.82
2022-11-20T03:55:12.186Z,0.73
2022-11-20T03:57:38.767Z,0.63
2022-11-20T04:00:06.736Z,0.44
2022-11-20T04:02:33.388Z,0.30
2022-11-20T04:04:59.987Z,0.38
2022-11-20T04:07:26.704Z,0.32
2022-11-20T04:09:53.331Z,0.47
2022-11-20T04:12:19.905Z,0.43
2022-11-20T04:14:46.547Z,0.34
2022-11-20T04:17:13.171Z,0.25
2022-11-20T04:19:39.753Z,0.17
2022-11-20T04:22:06.330Z,0.15
2022-11-20T04:24:32.925Z,0.05
2022-11-20T04:26:59.547Z,-0.15
2022-11-20T04:29:26.126Z,-0.09
2022-11-20T04:31:52.703Z,-0.25
2022-11-20T04:34:19.288Z,-0.21
2022-11-20T04:36:45.882Z,-0.30
2022-11-20T04:39:14.214Z,-0.22
2022-11-20T04:41:40.791Z,-0.48
2022-11-20T04:44:07.425Z,-0.42
2022-11-20T04:46:40.215Z,-0.40
2022-11-20T04:49:07.674Z,-0.15
2022-11-20T04:51:34.849Z,-0.03
2022-11-20T04:54:01.699Z,-0.07
2022-11-20T04:56:28.305Z,-0.19
2022-11-20T04:58:54.883Z,-0.31
2022-11-20T05:01:23.836Z,-0.04
2022-11-20T05:03:51.320Z,-0.40
2022-11-20T05:06:20.419Z,-0.48
2022-11-20T05:08:47.060Z,-0.45
2022-11-20T05:11:16.710Z,-0.54
2022-11-20T05:13:43.453Z,-0.16
2022-11-20T05:16:15.668Z,-0.06
2022-11-20T05:18:42.843Z,-0.12
2022-11-20T05:21:10.691Z,-0.24
2022-11-20T05:23:38.073Z,-0.05
2022-11-20T05:26:06.065Z,-0.01
2022-11-20T05:28:33.574Z,0.13
2022-11-20T05:31:20.717Z,0.08
2022-11-20T05:33:50.819Z,0.01
2022-11-20T05:36:18.236Z,-0.19
2022-11-20T05:38:47.937Z,-0.17
2022-11-20T05:41:19.422Z,-0.51
2022-11-20T05:43:47.243Z,-0.47
2022-11-20T05:46:16.227Z,-0.43
2022-11-20T05:48:46.024Z,-0.42
2022-11-20T05:51:15.846Z,-0.49
2022-11-20T05:53:48.038Z,-0.51
2022-11-20T05:56:18.579Z,-0.24
2022-11-20T05:58:46.372Z,0.03
2022-11-20T06:01:17.775Z,-0.22
2022-11-20T06:03:45.676Z,-0.23
2022-11-20T06:06:12.714Z,-0.14
2022-11-20T06:08:39.320Z,0.11
2022-11-20T06:11:06.932Z,0.08
2022-11-20T06:13:37.920Z,-0.05
2022-11-20T06:16:07.724Z,-0.31
2022-11-20T06:18:34.315Z,-0.10
2022-11-20T06:21:06.798Z,-0.18
2022-11-20T06:23:34.648Z,-0.10
2022-11-20T06:26:12.694Z,0.02
2022-11-20T06:28:39.577Z,0.13
2022-11-20T06:31:07.734Z,-0.19
2022-11-20T06:33:34.483Z,-0.20
2022-11-20T06:36:05.903Z,-0.10
2022-11-20T06:38:37.069Z,-0.14
2022-11-20T06:41:05.753Z,-0.15
2022-11-20T06:43:32.409Z,-0.05
2022-11-20T06:46:00.097Z,-0.01
2022-11-20T06:48:28.224Z,-0.00
2022-11-20T06:50:54.876Z,0.12
2022-11-20T06:53:22.645Z,0.16
2022-11-20T06:55:51.320Z,0.38
2022-11-20T06:58:18.845Z,0.39
2022-11-20T07:00:45.503Z,0.19
2022-11-20T07:03:12.938Z,0.02
2022-11-20T07:05:40.244Z,-0.09
2022-11-20T07:08:07.157Z,-0.05
2022-11-20T07:10:33.843Z,-0.08
2022-11-20T07:13:00.583Z,0.12
2022-11-20T07:15:27.352Z,0.24
2022-11-20T07:17:53.943Z,0.10
2022-11-20T07:20:20.512Z,0.09
2022-11-20T07:22:47.250Z,0.30
2022-11-20T07:25:13.899Z,0.46
2022-11-20T07:27:40.478Z,0.35
2022-11-20T07:30:07.548Z,0.53
2022-11-20T07:32:34.144Z,0.43
2022-11-20T07:35:00.777Z,0.55
2022-11-20T07:37:27.364Z,0.56
2022-11-20T07:39:53.954Z,0.62
2022-11-20T07:42:20.712Z,0.65
2022-11-20T07:44:47.307Z,0.48
2022-11-20T07:47:13.941Z,0.46
2022-11-20T07:49:40.521Z,0.56
2022-11-20T07:52:07.104Z,0.57
2022-11-20T07:54:33.699Z,0.54
2022-11-20T07:57:00.284Z,0.78
2022-11-20T07:59:26.856Z,0.51
2022-11-20T08:01:53.493Z,0.72
2022-11-20T08:04:20.084Z,0.69
2022-11-20T08:06:46.664Z,0.65
2022-11-20T08:09:13.264Z,0.77
2022-11-20T08:11:39.839Z,0.77
2022-11-20T08:14:06.422Z,0.83
2022-11-20T08:16:33.127Z,0.84
2022-11-20T08:18:59.740Z,0.74
2022-11-20T08:21:26.388Z,0.60
2022-11-20T08:23:53.268Z,0.74
2022-11-20T08:26:20.124Z,1.00
2022-11-20T08:28:46.721Z,1.09
2022-11-20T08:31:13.300Z,0.85
2022-11-20T08:33:39.906Z,0.99
2022-11-20T08:36:07.366Z,0.75
2022-11-20T08:38:33.943Z,0.72
2022-11-20T08:41:02.834Z,0.81
2022-11-20T08:43:29.458Z,0.83
2022-11-20T08:45:57.939Z,1.00
2022-11-20T08:48:24.680Z,1.21
2022-11-20T08:50:51.258Z,1.18
2022-11-20T08:53:17.864Z,1.29
2022-11-20T08:55:44.530Z,1.24
2022-11-20T08:58:11.152Z,1.41
2022-11-20T09:00:37.869Z,1.19
2022-11-20T09:03:04.465Z,1.40
2022-11-20T09:05:31.041Z,1.38
2022-11-20T09:07:58.773Z,1.35
2022-11-20T09:10:25.829Z,1.25
2022-11-20T09:12:53.372Z,1.47
2022-11-20T09:15:20.363Z,1.37
2022-11-20T09:17:56.272Z,1.76
2022-11-20T09:20:23.377Z,1.61
2022-11-20T09:22:50.001Z,1.49
2022-11-20T09:25:17.297Z,1.60
2022-11-20T09:27:43.996Z,1.36
2022-11-20T09:30:11.365Z,1.59
2022-11-20T09:32:39.853Z,1.69
2022-11-20T09:35:06.716Z,1.90
2022-11-20T09:37:33.355Z,1.75
2022-11-20T09:39:59.978Z,1.57
2022-11-20T09:42:41.033Z,1.58
2022-11-20T09:45:18.414Z,1.49
2022-11-20T09:48:30.393Z,1.67
2022-11-20T09:51:12.071Z,1.82
2022-11-20T09:54:30.624Z,1.81
2022-11-20T09:57:11.268Z,2.33
2022-11-20T09:59:40.727Z,2.23
2022-11-20T10:02:28.982Z,2.22
2022-11-20T10:05:17.204Z,2.30
2022-11-20T10:08:11.987Z,2.12
2022-11-20T10:10:44.261Z,2.11
2022-11-20T10:13:17.194Z,2.20
2022-11-20T10:16:17.638Z,2.07
2022-11-20T10:18:56.366Z,2.23
2022-11-20T10:21:59.718Z,2.08
2022-11-20T10:24:35.325Z,2.38
2022-11-20T10:27:29.783Z,2.26
2022-11-20T10:30:08.271Z,2.47
2022-11-20T10:32:49.785Z,2.63
2022-11-20T10:35:22.552Z,2.68
2022-11-20T10:38:01.026Z,2.47
2022-11-20T10:40:39.066Z,2.39
2022-11-20T10:43:16.061Z,2.49
2022-11-20T10:45:54.063Z,2.45
2022-11-20T10:48:26.395Z,2.45
2022-11-20T10:51:09.201Z,2.67
2022-11-20T10:53:43.756Z,2.69
2022-11-20T10:56:42.366Z,2.66
2022-11-20T10:59:35.896Z,2.88
2022-11-20T11:02:03.441Z,2.96
2022-11-20T11:04:54.101Z,3.00
2022-11-20T11:07:29.173Z,3.36
2022-11-20T11:09:57.014Z,3.45
2022-11-20T11:12:27.058Z,3.35
2022-11-20T11:14:55.989Z,3.68
2022-11-20T11:17:27.186Z,3.62
2022-11-20T11:20:11.771Z,3.64
2022-11-20T11:22:47.615Z,3.58
2022-11-20T11:25:33.982Z,3.41
2022-11-20T11:28:04.561Z,3.36
2022-11-20T11:30:43.373Z,3.42
2022-11-20T11:33:13.532Z,3.33
2022-11-20T11:35:51.194Z,3.58
2022-11-20T11:38:23.726Z,3.60
2022-11-20T11:40:50.631Z,3.77
2022-11-20T11:43:26.112Z,3.68
2022-11-20T11:45:57.002Z,3.89
2022-11-20T11:48:23.610Z,3.79
2022-11-20T11:50:51.621Z,3.65
2022-11-20T11:53:21.133Z,3.82
2022-11-20T11:56:20.325Z,3.88
2022-11-20T11:58:53.471Z,3.89
2022-11-20T12:01:44.286Z,4.07
2022-11-20T12:04:35.649Z,4.77
2022-11-20T12:07:38.824Z,4.86
2022-11-20T12:09:59.661Z,4.43
2022-11-20T12:12:34.096Z,4.29
2022-11-20T12:15:00.825Z,4.28
2022-11-20T12:17:27.468Z,4.33
2022-11-20T12:19:54.046Z,4.37
2022-11-20T12:22:39.021Z,4.34
2022-11-20T12:25:32.838Z,4.25
2022-11-20T12:28:12.384Z,4.32
2022-11-20T12:31:23.927Z,4.16
2022-11-20T12:34:02.379Z,3.97
2022-11-20T12:36:36.591Z,4.05
2022-11-20T12:39:16.585Z,4.06
2022-11-20T12:42:01.774Z,3.94
2022-11-20T12:44:50.254Z,3.87
2022-11-20T12:47:40.414Z,3.97
2022-11-20T12:50:53.391Z,4.00
2022-11-20T12:53:52.455Z,4.14
2022-11-20T12:57:12.589Z,4.07
2022-11-20T12:59:44.772Z,3.94
2022-11-20T13:02:29.362Z,3.88
2022-11-20T13:05:14.427Z,3.85
2022-11-20T13:07:42.002Z,3.76
2022-11-20T13:10:22.965Z,3.98
2022-11-20T13:13:25.858Z,4.29
2022-11-20T13:16:26.152Z,4.15
2022-11-20T13:18:53.103Z,4.17
2022-11-20T13:21:24.034Z,4.15
2022-11-20T13:23:50.798Z,3.99
2022-11-20T13:26:17.337Z,3.98
2022-11-20T13:28:44.014Z,4.14
2022-11-20T13:31:36.459Z,4.25
2022-11-20T13:34:07.048Z,4.08
2022-11-20T13:36:33.986Z,4.26
2022-11-20T13:39:00.566Z,4.10
2022-11-20T13:41:33.568Z,3.99
2022-11-20T13:44:08.908Z,4.18
2022-11-20T13:46:41.741Z,4.27
2022-11-20T13:49:11.871Z,4.34
2022-11-20T13:51:43.840Z,4.29
2022-11-20T13:54:22.660Z,4.56
2022-11-20T13:57:07.428Z,4.31
2022-11-20T13:59:46.119Z,4.17
2022-11-20T14:02:15.758Z,4.36
2022-11-20T14:04:52.406Z,4.33
2022-11-20T14:07:22.624Z,4.27
2022-11-20T14:09:57.116Z,4.25
2022-11-20T14:12:37.482Z,3.88
2022-11-20T14:15:07.386Z,3.85
2022-11-20T14:17:36.085Z,3.68
2022-11-20T14:20:12.307Z,3.68
2022-11-20T14:22:38.966Z,3.50
2022-11-20T14:25:17.652Z,3.50
2022-11-20T14:27:54.997Z,3.58
2022-11-20T14:30:28.200Z,3.47
2022-11-20T14:32:58.270Z,3.85
2022-11-20T14:35:28.748Z,3.87
2022-11-20T14:37:56.697Z,3.73
2022-11-20T14:40:26.294Z,3.45
2022-11-20T14:42:52.905Z,3.42
2022-11-20T14:45:20.578Z,3.40
2022-11-20T14:47:47.824Z,3.30
2022-11-20T14:50:23.151Z,3.50
2022-11-20T14:52:55.138Z,3.48
2022-11-20T14:55:33.585Z,3.36
2022-11-20T14:58:06.040Z,3.44
2022-11-20T15:00:35.032Z,3.30
2022-11-20T15:03:01.636Z,3.47
2022-11-20T15:05:48.890Z,3.93
2022-11-20T15:08:16.676Z,3.45
2022-11-20T15:10:51.685Z,3.22
2022-11-20T15:13:37.519Z,3.34
2022-11-20T15:16:15.424Z,3.55
2022-11-20T15:18:42.442Z,3.55
2022-11-20T15:21:13.771Z,3.62
2022-11-20T15:23:41.203Z,3.72
2022-11-20T15:26:09.525Z,3.75
2022-11-20T15:28:44.549Z,3.79
2022-11-20T15:31:16.659Z,3.76
2022-11-20T15:33:43.419Z,3.76
2022-11-20T15:36:10.846Z,3.76
2022-11-20T15:38:38.142Z,3.71
2022-11-20T15:41:05.543Z,3.75
2022-11-20T15:43:32.182Z,3.68
2022-11-20T15:46:04.969Z,3.63
2022-11-20T15:48:47.967Z,3.58
2022-11-20T15:51:30.877Z,3.58
2022-11-20T15:53:57.648Z,3.63
2022-11-20T15:56:25.213Z,3.67
2022-11-20T15:58:51.802Z,3.56
2022-11-20T16:01:21.439Z,3.69
2022-11-20T16:03:48.986Z,3.73
2022-11-20T16:06:15.615Z,3.50
2022-11-20T16:08:42.238Z,3.28
2022-11-20T16:11:12.898Z,3.37
2022-11-20T16:13:40.937Z,3.41
2022-11-20T16:16:32.096Z,3.19
2022-11-20T16:18:58.771Z,3.21
2022-11-20T16:21:25.410Z,3.23
2022-11-20T16:23:52.004Z,3.11
2022-11-20T16:26:18.667Z,3.13
2022-11-20T16:28:45.757Z,3.21
2022-11-20T16:31:15.159Z,3.34
2022-11-20T16:33:42.447Z,3.30
2022-11-20T16:36:14.483Z,3.27
2022-11-20T16:38:41.921Z,3.24
2022-11-20T16:41:09.727Z,3.18
2022-11-20T16:43:36.295Z,3.33
2022-11-20T16:46:04.796Z,3.30
2022-11-20T16:48:31.386Z,3.00
2022-11-20T16:50:57.971Z,2.85
2022-11-20T16:53:24.683Z,2.90
2022-11-20T16:55:51.317Z,3.00
2022-11-20T16:58:17.904Z,3.04
2022-11-20T17:00:48.619Z,3.02
2022-11-20T17:03:18.982Z,3.06
2022-11-20T17:05:45.634Z,2.99
2022-11-20T17:08:12.330Z,2.91
2022-11-20T17:10:38.920Z,2.75
2022-11-20T17:13:05.499Z,2.50
2022-11-20T17:15:32.141Z,2.47
2022-11-20T17:17:58.732Z,2.67
2022-11-20T17:20:25.357Z,2.67
2022-11-20T17:22:52.040Z,2.41
2022-11-20T17:25:18.740Z,2.79
2022-11-20T17:27:45.311Z,2.62
2022-11-20T17:30:12.022Z,2.54
2022-11-20T17:32:38.673Z,2.40
2022-11-20T17:35:05.676Z,2.73
2022-11-20T17:37:32.280Z,2.61
2022-11-20T17:39:58.878Z,2.53
2022-11-20T17:42:25.512Z,2.50
2022-11-20T17:44:52.192Z,2.43
2022-11-20T17:47:18.755Z,2.40
2022-11-20T17:49:46.490Z,2.45
2022-11-20T17:52:13.095Z,2.29
2022-11-20T17:54:39.673Z,2.22
2022-11-20T17:57:06.949Z,2.06
2022-11-20T17:59:33.612Z,2.10
2022-11-20T18:02:03.695Z,2.43
2022-11-20T18:04:30.570Z,2.20
2022-11-20T18:06:58.197Z,2.08
2022-11-20T18:09:24.803Z,1.93
2022-11-20T18:11:51.394Z,1.77
2022-11-20T18:14:18.038Z,1.72
2022-11-20T18:16:50.463Z,1.70
2022-11-20T18:19:20.523Z,1.63
2022-11-20T18:21:47.219Z,1.77
2022-11-20T18:24:14.429Z,1.70
2022-11-20T18:26:44.351Z,1.51
2022-11-20T18:29:13.098Z,1.48
2022-11-20T18:31:40.043Z,1.57
2022-11-20T18:34:07.288Z,1.80
2022-11-20T18:36:33.867Z,1.80
2022-11-20T18:39:01.080Z,1.83
2022-11-20T18:41:29.951Z,1.77
2022-11-20T18:43:57.115Z,1.89
2022-11-20T18:46:23.752Z,1.55
2022-11-20T18:48:50.358Z,1.62
2022-11-20T18:51:16.983Z,1.62
2022-11-20T18:53:47.311Z,1.70
2022-11-20T18:56:14.422Z,1.66
2022-11-20T18:58:41.118Z,1.47
2022-11-20T19:01:08.640Z,1.70
2022-11-20T19:03:35.333Z,1.53
2022-11-20T19:06:02.116Z,1.54
2022-11-20T19:08:28.706Z,1.47
2022-11-20T19:10:55.625Z,1.63
2022-11-20T19:13:22.283Z,1.10
2022-11-20T19:15:48.936Z,1.37
2022-11-20T19:18:15.527Z,1.36
2022-11-20T19:20:42.148Z,1.43
2022-11-20T19:23:08.737Z,1.43
2022-11-20T19:25:38.335Z,1.43
2022-11-20T19:28:05.502Z,1.56
2022-11-20T19:30:32.949Z,1.44
2022-11-20T19:32:59.585Z,1.27
2022-11-20T19:35:26.179Z,1.27
2022-11-20T19:37:53.248Z,1.37
2022-11-20T19:40:19.875Z,1.41
2022-11-20T19:42:46.502Z,1.67
2022-11-20T19:45:13.149Z,1.27
2022-11-20T19:48:06.465Z,1.23
2022-11-20T19:50:26.358Z,1.10
2022-11-20T19:52:58.387Z,1.09
2022-11-20T19:55:25.519Z,1.13
2022-11-20T19:57:52.165Z,1.10
2022-11-20T20:00:25.635Z,1.10
2022-11-20T20:02:58.025Z,1.11
2022-11-20T20:05:24.659Z,1.04
2022-11-20T20:07:51.267Z,0.96
2022-11-20T20:10:17.910Z,0.97
2022-11-20T20:12:44.492Z,0.88
2022-11-20T20:15:11.129Z,0.88
2022-11-20T20:17:37.741Z,0.97
2022-11-20T20:20:04.797Z,0.96
2022-11-20T20:22:31.413Z,1.01
2022-11-20T20:24:57.986Z,0.77
2022-11-20T20:27:24.630Z,0.71
2022-11-20T20:29:51.210Z,0.56
2022-11-20T20:32:17.841Z,0.65
2022-11-20T20:34:44.457Z,1.03
2022-11-20T20:37:11.021Z,1.00
2022-11-20T20:39:37.600Z,0.62
2022-11-20T20:42:04.336Z,0.72
2022-11-20T20:44:30.929Z,1.30
2022-11-20T20:46:57.496Z,1.20
2022-11-20T20:49:24.424Z,0.75
2022-11-20T20:51:51.139Z,0.87
2022-11-20T20:54:17.717Z,0.78
2022-11-20T20:56:44.308Z,0.81
2022-11-20T20:59:10.888Z,1.19
2022-11-20T21:01:37.566Z,1.42
2022-11-20T21:04:04.221Z,1.59
2022-11-20T21:06:30.797Z,1.23
2022-11-20T21:08:57.441Z,0.79
2022-11-20T21:11:24.557Z,0.69
2022-11-20T21:13:51.167Z,0.41
2022-11-20T21:16:19.949Z,0.34
2022-11-20T21:18:46.989Z,0.48
2022-11-20T21:21:15.809Z,0.42
2022-11-20T21:23:46.237Z,0.59
2022-11-20T21:26:13.048Z,0.50
2022-11-20T21:28:39.629Z,0.54
2022-11-20T21:31:09.150Z,0.57
2022-11-20T21:33:46.117Z,0.55
2022-11-20T21:36:15.317Z,0.53
2022-11-20T21:38:42.627Z,0.54
2022-11-20T21:41:11.081Z,0.54
2022-11-20T21:43:38.225Z,0.54
2022-11-20T21:46:08.364Z,0.38
2022-11-20T21:48:37.488Z,0.43
2022-11-20T21:51:07.060Z,0.47
2022-11-20T21:53:34.045Z,0.30
2022-11-20T21:56:00.694Z,0.30
2022-11-20T21:58:27.581Z,0.15
2022-11-20T22:00:54.226Z,0.39
2022-11-20T22:03:21.011Z,0.38
2022-11-20T22:05:57.600Z,0.23
2022-11-20T22:08:25.457Z,0.26
2022-11-20T22:11:03.012Z,0.68
2022-11-20T22:13:30.114Z,0.39
2022-11-20T22:16:01.589Z,0.62
2022-11-20T22:18:28.246Z,0.25
2022-11-20T22:20:54.806Z,0.53
2022-11-20T22:23:21.381Z,0.80
2022-11-20T22:25:47.979Z,0.50
2022-11-20T22:28:14.555Z,0.29
2022-11-20T22:30:41.178Z,0.19
2022-11-20T22:33:13.097Z,0.06
2022-11-20T22:35:40.346Z,-0.01
2022-11-20T22:38:06.942Z,0.28
2022-11-20T22:40:33.551Z,0.04
2022-11-20T22:43:00.149Z,-0.04
2022-11-20T22:45:26.760Z,-0.13
2022-11-20T22:47:53.342Z,-0.10
2022-11-20T22:50:19.920Z,-0.02
2022-11-20T22:52:46.583Z,-0.03
2022-11-20T22:55:16.268Z,0.14
2022-11-20T22:57:43.115Z,0.06
2022-11-20T23:00:10.247Z,0.10
2022-11-20T23:02:36.840Z,0.03
2022-11-20T23:05:03.513Z,0.19
2022-11-20T23:07:30.152Z,0.14
2022-11-20T23:09:56.771Z,0.29
2022-11-20T23:12:23.414Z,0.19
2022-11-20T23:14:50.004Z,0.11
2022-11-20T23:17:16.617Z,0.10
2022-11-20T23:19:43.367Z,0.11
2022-11-20T23:22:09.942Z,0.06
2022-11-20T23:24:36.485Z,-0.03
2022-11-20T23:27:03.108Z,-0.13
2022-11-20T23:29:29.755Z,-0.14
2022-11-20T23:31:56.369Z,-0.08
2022-11-20T23:34:23.005Z,-0.12
2022-11-20T23:36:49.599Z,0.07
2022-11-20T23:39:16.180Z,0.61
2022-11-20T23:41:42.836Z,0.69
2022-11-20T23:44:09.425Z,0.55
2022-11-20T23:46:36.013Z,0.53
2022-11-20T23:49:02.606Z,0.62
2022-11-20T23:51:29.269Z,0.29
2022-11-20T23:53:58.363Z,0.17
2022-11-20T23:56:28.845Z,0.11
2022-11-20T23:58:55.435Z,0.17
